Time;durP1;ratioP1;P1;durP2;ratioP2;P2;SDS_P1;SDS_P2;PMS_P1;PMS_P2;Temp;Humidity;BMP_temperature;BMP_pressure;BME280_temperature;BME280_humidity;BME280_pressure;Samples;Min_cycle;Max_cycle;Signal;HPM_P1;HPM_P2
2022/12/01 00:01:06;;;;;;;19.10;8.53;;;;;;;1.31;92.32;94150.31;4971260;28;21817;-65
2022/12/01 00:03:32;;;;;;;17.15;7.95;;;;;;;1.43;91.54;94151.31;4972417;28;20061;-65
2022/12/01 00:06:03;;;;;;;17.05;7.60;;;;;;;1.42;92.01;94149.78;4971576;28;20057;-65
2022/12/01 00:08:30;;;;;;;18.25;8.77;;;;;;;1.14;92.21;94148.75;4972426;28;20042;-65
2022/12/01 00:11:05;;;;;;;18.13;7.85;;;;;;;1.15;93.38;94146.84;4971542;28;20047;-65
2022/12/01 00:13:33;;;;;;;20.13;8.93;;;;;;;1.10;94.37;94145.16;4972195;28;20057;-65
2022/12/01 00:16:14;;;;;;;20.92;9.40;;;;;;;1.17;94.06;94145.34;4982380;28;20050;-65
2022/12/01 00:18:41;;;;;;;19.77;8.88;;;;;;;1.08;94.76;94141.25;4975272;28;20512;-65
2022/12/01 00:21:15;;;;;;;17.33;8.23;;;;;;;1.21;91.95;94148.16;4970519;28;20046;-64
2022/12/01 00:23:46;;;;;;;16.77;9.05;;;;;;;0.90;89.57;94143.50;4971618;28;20054;-64
2022/12/01 00:26:15;;;;;;;15.23;6.00;;;;;;;1.26;87.31;94142.47;4971639;28;20051;-65
2022/12/01 00:28:42;;;;;;;18.27;8.30;;;;;;;0.91;89.48;94142.41;4971478;28;20522;-64
2022/12/01 00:31:09;;;;;;;16.95;7.30;;;;;;;1.09;88.95;94140.91;4971498;28;20125;-64
2022/12/01 00:33:37;;;;;;;14.82;6.90;;;;;;;1.07;88.47;94143.19;4971911;28;20055;-65
2022/12/01 00:36:05;;;;;;;15.35;6.80;;;;;;;0.95;89.15;94145.97;4970577;28;20455;-65
2022/12/01 00:38:32;;;;;;;16.07;7.23;;;;;;;1.11;88.57;94141.34;4968349;28;20126;-65
2022/12/01 00:40:59;;;;;;;17.48;7.50;;;;;;;1.05;88.98;94142.75;4973000;28;20059;-65
2022/12/01 00:43:26;;;;;;;16.98;7.90;;;;;;;1.02;89.14;94148.84;4986030;28;20057;-65
2022/12/01 00:45:53;;;;;;;15.93;6.90;;;;;;;0.86;88.44;94146.13;4973240;28;20058;-64
2022/12/01 00:48:20;;;;;;;18.25;7.97;;;;;;;0.78;89.24;94149.78;4985392;28;20043;-65
2022/12/01 00:50:49;;;;;;;15.50;6.83;;;;;;;0.65;88.19;94159.09;4971184;28;20385;-65
2022/12/01 00:53:16;;;;;;;17.25;7.97;;;;;;;0.63;86.74;94154.03;4984446;28;20703;-65
2022/12/01 00:55:43;;;;;;;16.35;7.50;;;;;;;0.56;87.88;94153.84;4982446;28;20050;-65
2022/12/01 00:58:10;;;;;;;17.98;8.30;;;;;;;0.60;88.72;94157.41;4978556;28;20038;-65
2022/12/01 01:00:37;;;;;;;16.45;8.13;;;;;;;0.52;87.15;94161.84;4970919;28;20124;-65
2022/12/01 01:03:05;;;;;;;16.08;8.00;;;;;;;0.50;86.88;94155.22;4970727;28;20034;-65
2022/12/01 01:05:39;;;;;;;16.35;6.07;;;;;;;0.67;85.70;94163.03;4978513;28;20050;-65
2022/12/01 01:08:07;;;;;;;15.73;7.68;;;;;;;0.48;85.41;94160.19;4978141;28;20424;-66
2022/12/01 01:10:38;;;;;;;18.27;7.70;;;;;;;0.68;85.84;94167.28;4971350;28;20455;-65
2022/12/01 01:13:05;;;;;;;16.42;7.30;;;;;;;0.71;85.08;94158.50;4981846;28;21586;-65
2022/12/01 01:15:32;;;;;;;17.27;8.38;;;;;;;0.32;86.01;94160.16;4982673;28;20251;-65
2022/12/01 01:17:59;;;;;;;16.52;6.32;;;;;;;0.65;86.00;94157.19;4989860;28;20399;-65
2022/12/01 01:20:25;;;;;;;16.27;7.70;;;;;;;0.52;86.74;94155.66;4976368;28;20045;-65
2022/12/01 01:22:52;;;;;;;19.50;8.10;;;;;;;0.50;87.70;94152.53;4971032;28;20117;-64
2022/12/01 01:25:19;;;;;;;20.48;10.18;;;;;;;0.37;87.86;94149.88;4976011;28;20046;-65
2022/12/01 01:27:45;;;;;;;19.98;9.38;;;;;;;0.21;88.83;94143.66;4981170;28;20124;-64
2022/12/01 01:30:12;;;;;;;18.05;7.93;;;;;;;0.52;88.25;94158.38;4983310;28;20490;-65
2022/12/01 01:32:39;;;;;;;18.77;8.52;;;;;;;0.49;88.33;94149.03;4974062;28;20045;-64
2022/12/01 01:35:07;;;;;;;17.52;6.88;;;;;;;0.66;87.20;94157.97;4970899;28;20047;-65
2022/12/01 01:37:33;;;;;;;17.65;7.95;;;;;;;0.57;88.20;94156.19;4967010;28;20431;-65
2022/12/01 01:40:00;;;;;;;18.57;7.63;;;;;;;0.69;87.50;94155.34;4970376;28;20073;-65
2022/12/01 01:42:27;;;;;;;19.98;8.30;;;;;;;0.42;88.51;94156.94;4992095;28;20407;-65
2022/12/01 01:44:57;;;;;;;17.77;8.65;;;;;;;0.34;89.00;94155.19;4991879;28;20056;-65
2022/12/01 01:47:25;;;;;;;17.73;7.32;;;;;;;0.42;87.92;94150.78;4988817;28;20038;-65
2022/12/01 01:49:55;;;;;;;17.73;8.30;;;;;;;0.22;87.97;94155.25;4976027;28;20429;-65
2022/12/01 01:52:22;;;;;;;17.87;7.30;;;;;;;0.33;88.69;94153.63;4974578;28;20043;-65
2022/12/01 01:54:52;;;;;;;18.63;8.50;;;;;;;0.25;88.82;94154.56;4974263;28;20058;-64
2022/12/01 01:57:25;;;;;;;20.05;9.18;;;;;;;0.13;87.83;94147.31;4988433;28;20484;-64
2022/12/01 01:59:56;;;;;;;14.55;6.05;;;;;;;0.34;87.83;94145.19;4974220;28;20053;-64
2022/12/01 02:02:24;;;;;;;16.30;7.80;;;;;;;0.32;87.76;94147.47;4974612;28;20368;-64
2022/12/01 02:04:56;;;;;;;18.23;7.83;;;;;;;0.54;87.29;94153.41;4974333;28;20049;-64
2022/12/01 02:07:22;;;;;;;17.00;7.40;;;;;;;0.46;87.51;94151.66;4974571;28;20447;-65
2022/12/01 02:09:49;;;;;;;18.65;9.27;;;;;;;-0.03;88.67;94155.34;4974041;28;20047;-65
2022/12/01 02:12:40;;;;;;;19.08;7.85;;;;;;;-0.05;89.48;94150.28;4987192;28;20053;-65
2022/12/01 02:15:45;;;;;;;18.48;7.57;;;;;;;0.29;88.17;94150.84;4992822;28;20757;-66
2022/12/01 02:18:31;;;;;;;20.25;8.95;;;;;;;0.04;88.64;94150.16;4959667;28;20476;-66
2022/12/01 02:21:16;;;;;;;20.42;8.80;;;;;;;-0.04;88.55;94143.75;4974756;28;20112;-65
2022/12/01 02:23:48;;;;;;;18.00;7.82;;;;;;;0.13;88.50;94147.31;4974006;28;20047;-65
2022/12/01 02:26:33;;;;;;;20.42;9.20;;;;;;;-0.17;89.52;94154.94;4973900;28;20049;-66
2022/12/01 02:29:26;;;;;;;20.02;7.93;;;;;;;-0.06;89.91;94146.03;4973407;28;20051;-66
2022/12/01 02:32:20;;;;;;;19.95;8.75;;;;;;;0.06;89.60;94144.38;4971896;28;20047;-67
2022/12/01 02:35:13;;;;;;;20.60;8.55;;;;;;;0.17;88.87;94150.88;4973626;28;20061;-65
2022/12/01 02:37:49;;;;;;;19.95;8.07;;;;;;;-0.07;89.39;94144.44;4970087;28;20077;-64
2022/12/01 02:40:19;;;;;;;20.52;8.98;;;;;;;0.16;89.18;94135.81;4978457;28;20117;-65
2022/12/01 02:42:49;;;;;;;22.92;8.90;;;;;;;0.13;89.18;94139.97;4992199;28;20112;-65
2022/12/01 02:45:39;;;;;;;19.73;8.10;;;;;;;0.18;88.73;94147.84;4978309;28;20054;-66
2022/12/01 02:48:22;;;;;;;21.25;8.50;;;;;;;0.16;88.92;94141.19;4980675;28;20395;-65
2022/12/01 02:50:51;;;;;;;21.52;8.50;;;;;;;0.15;88.93;94147.75;4973306;28;20069;-65
2022/12/01 02:53:18;;;;;;;19.50;7.80;;;;;;;-0.02;89.56;94146.91;4973531;28;20104;-65
2022/12/01 02:55:47;;;;;;;23.30;9.77;;;;;;;-0.29;90.78;94145.72;4990053;28;20050;-65
2022/12/01 02:58:14;;;;;;;22.02;8.82;;;;;;;-0.02;90.89;94151.50;4992827;28;20046;-66
2022/12/01 03:01:10;;;;;;;22.65;8.77;;;;;;;-0.04;90.21;94146.47;4976198;28;20061;-65
2022/12/01 03:04:20;;;;;;;21.80;8.50;;;;;;;-0.10;91.30;94149.72;4972564;28;20031;-65
2022/12/01 03:06:54;;;;;;;24.80;9.50;;;;;;;-0.19;92.82;94147.16;4974243;28;20208;-65
2022/12/01 03:09:30;;;;;;;23.73;9.68;;;;;;;-0.21;92.18;94144.81;4973205;28;20047;-65
2022/12/01 03:12:04;;;;;;;27.20;10.90;;;;;;;-0.19;92.71;94144.47;4983541;28;20046;-65
2022/12/01 03:15:20;;;;;;;29.85;11.35;;;;;;;-0.30;93.60;94151.47;4977800;28;20051;-65
2022/12/01 03:18:22;;;;;;;28.13;10.70;;;;;;;0.03;92.68;94145.88;4934766;28;20653;-65
2022/12/01 03:21:05;;;;;;;25.95;9.90;;;;;;;-0.02;93.09;94136.13;4943703;28;20074;-65
2022/12/01 03:23:38;;;;;;;26.75;10.52;;;;;;;-0.15;93.47;94141.88;4971136;28;20377;-65
2022/12/01 03:26:08;;;;;;;29.90;11.10;;;;;;;-0.52;95.57;94141.97;4972370;28;20047;-65
2022/12/01 03:28:44;;;;;;;26.13;9.93;;;;;;;-0.23;95.03;94140.88;4973311;28;20049;-65
2022/12/01 03:31:16;;;;;;;26.35;9.70;;;;;;;-0.16;93.76;94138.41;4991446;28;20838;-65
2022/12/01 03:33:51;;;;;;;30.63;10.70;;;;;;;-0.16;94.63;94134.91;4992122;28;20050;-65
2022/12/01 03:36:34;;;;;;;28.08;10.48;;;;;;;-0.04;94.32;94141.06;4976807;28;20121;-65
2022/12/01 03:39:05;;;;;;;26.80;10.07;;;;;;;0.10;93.82;94140.69;4973409;28;20046;-65
2022/12/01 03:41:47;;;;;;;28.45;10.20;;;;;;;0.33;92.95;94138.22;4987099;28;20065;-65
2022/12/01 03:44:28;;;;;;;27.85;10.95;;;;;;;0.42;92.11;94135.34;4978506;28;20043;-65
2022/12/01 03:47:08;;;;;;;27.67;10.73;;;;;;;0.01;93.24;94141.94;4988215;28;20056;-65
2022/12/01 03:49:36;;;;;;;29.33;11.30;;;;;;;0.05;94.39;94135.53;4972848;28;20039;-65
2022/12/01 03:52:21;;;;;;;31.33;11.43;;;;;;;0.04;94.22;94139.38;4972251;28;20054;-65
2022/12/01 03:55:07;;;;;;;30.75;11.52;;;;;;;-0.06;95.03;94143.31;4981287;28;20054;-65
2022/12/01 03:57:47;;;;;;;32.70;11.45;;;;;;;0.30;94.17;94144.31;4974583;28;20047;-65
2022/12/01 04:00:14;;;;;;;29.27;11.02;;;;;;;0.33;93.87;94149.00;4973395;28;20606;-65
2022/12/01 04:02:41;;;;;;;35.40;12.50;;;;;;;0.12;93.75;94148.41;4972179;28;20057;-65
2022/12/01 04:05:08;;;;;;;32.17;11.70;;;;;;;0.22;93.75;94144.44;4971781;28;20063;-65
2022/12/01 04:07:38;;;;;;;31.60;12.05;;;;;;;0.16;94.02;94146.59;4972173;28;20047;-65
2022/12/01 04:10:05;;;;;;;32.10;11.65;;;;;;;-0.06;95.39;94137.94;4971320;28;20480;-65
2022/12/01 04:12:32;;;;;;;34.10;11.55;;;;;;;0.14;94.82;94141.56;4987674;28;20414;-65
2022/12/01 04:15:06;;;;;;;35.03;11.80;;;;;;;0.13;94.05;94150.78;4972587;28;20039;-65
2022/12/01 04:17:33;;;;;;;30.60;10.93;;;;;;;0.08;94.85;94148.34;4972228;28;20049;-65
2022/12/01 04:20:00;;;;;;;32.20;11.80;;;;;;;0.12;93.75;94141.13;4971837;28;20046;-65
2022/12/01 04:22:27;;;;;;;33.03;11.40;;;;;;;0.25;93.64;94149.94;4971817;28;20047;-65
2022/12/01 04:24:54;;;;;;;37.42;13.65;;;;;;;-0.40;95.94;94147.34;4971372;28;20061;-65
2022/12/01 04:27:20;;;;;;;31.40;11.75;;;;;;;-0.54;97.32;94141.50;4971835;28;20431;-65
2022/12/01 04:29:47;;;;;;;34.13;11.87;;;;;;;-0.19;96.08;94139.09;4971557;28;20100;-65
2022/12/01 04:32:15;;;;;;;34.28;12.15;;;;;;;-0.17;96.33;94136.81;4971521;28;20035;-65
2022/12/01 04:34:42;;;;;;;34.72;12.15;;;;;;;-0.03;95.56;94147.25;4971449;28;20155;-65
2022/12/01 04:37:08;;;;;;;35.15;12.30;;;;;;;-0.20;95.76;94148.31;4968686;28;20049;-65
2022/12/01 04:39:35;;;;;;;33.30;11.55;;;;;;;-0.09;95.67;94140.53;4964290;28;20404;-65
2022/12/01 04:42:03;;;;;;;30.33;11.50;;;;;;;-0.21;96.14;94146.72;4988983;28;20054;-66
2022/12/01 04:44:30;;;;;;;31.52;11.93;;;;;;;-0.35;96.79;94144.41;4983131;28;20043;-65
2022/12/01 04:47:02;;;;;;;32.00;10.68;;;;;;;-0.24;96.44;94142.03;4972501;28;20477;-65
2022/12/01 04:49:29;;;;;;;31.95;11.77;;;;;;;-0.23;96.30;94141.66;4971504;28;20047;-66
2022/12/01 04:51:56;;;;;;;30.92;11.35;;;;;;;-0.22;96.81;94147.88;4970584;28;20047;-65
2022/12/01 04:54:22;;;;;;;34.22;12.70;;;;;;;-0.35;96.27;94152.50;4977085;28;20046;-65
2022/12/01 04:56:49;;;;;;;28.55;10.63;;;;;;;-0.41;97.98;94149.22;4990070;28;20130;-66
2022/12/01 04:59:16;;;;;;;34.88;11.05;;;;;;;-0.13;96.74;94148.50;4985744;28;20079;-65
2022/12/01 05:01:43;;;;;;;28.42;11.32;;;;;;;-0.10;96.26;94152.41;4979314;28;20038;-64
2022/12/01 05:04:12;;;;;;;26.73;10.23;;;;;;;-0.09;96.42;94143.22;4978441;28;20051;-66
2022/12/01 05:06:39;;;;;;;30.07;10.70;;;;;;;0.03;95.73;94147.78;4971330;28;20047;-66
2022/12/01 05:09:06;;;;;;;29.38;10.85;;;;;;;-0.01;95.14;94147.69;4978257;28;20509;-66
2022/12/01 05:11:33;;;;;;;28.48;10.13;;;;;;;-0.18;96.65;94153.34;4978183;28;20411;-65
2022/12/01 05:14:00;;;;;;;26.80;10.27;;;;;;;-0.22;96.34;94147.88;4979584;28;20565;-65
2022/12/01 05:16:30;;;;;;;28.05;11.02;;;;;;;-0.24;96.77;94150.13;4970302;28;20108;-65
2022/12/01 05:21:47;;;;;;;29.77;11.50;;;;;;;-0.27;97.10;94151.56;4970702;28;20255;-65
2022/12/01 05:24:16;;;;;;;31.83;11.20;;;;;;;-0.21;97.23;94152.13;4970784;28;20408;-65
2022/12/01 05:26:43;;;;;;;31.02;10.80;;;;;;;-0.37;97.94;94159.34;4970160;28;20055;-65
2022/12/01 05:29:11;;;;;;;30.15;10.93;;;;;;;-0.19;98.03;94157.19;4969461;28;20097;-65
2022/12/01 05:31:38;;;;;;;29.25;10.90;;;;;;;-0.34;97.43;94161.34;4971102;28;20053;-65
2022/12/01 05:34:06;;;;;;;30.48;11.55;;;;;;;-0.32;97.82;94151.81;4978014;28;20096;-65
2022/12/01 05:36:33;;;;;;;29.08;10.85;;;;;;;-0.41;99.00;94160.03;4967096;28;20170;-65
2022/12/01 05:39:00;;;;;;;29.05;10.82;;;;;;;-0.40;98.27;94160.81;4954004;28;20055;-65
2022/12/01 05:41:27;;;;;;;29.27;11.32;;;;;;;-0.38;99.43;94158.56;4983832;28;20045;-65
2022/12/01 05:43:53;;;;;;;31.83;11.48;;;;;;;-0.47;98.79;94157.91;4979509;28;20675;-65
2022/12/01 05:46:20;;;;;;;26.38;9.93;;;;;;;-0.27;98.41;94153.50;4983917;28;20487;-65
2022/12/01 05:48:47;;;;;;;28.20;10.40;;;;;;;-0.30;97.87;94154.16;4972512;28;20043;-65
2022/12/01 05:51:15;;;;;;;26.75;9.73;;;;;;;-0.34;98.09;94154.06;4985500;28;20042;-66
2022/12/01 05:53:43;;;;;;;28.35;10.60;;;;;;;-0.28;98.37;94162.69;4970694;28;20051;-65
2022/12/01 05:56:09;;;;;;;25.27;9.90;;;;;;;-0.31;98.68;94160.69;4990018;28;20053;-66
2022/12/01 05:58:36;;;;;;;26.08;9.32;;;;;;;-0.34;98.86;94155.97;4989777;28;20050;-66
2022/12/01 06:01:03;;;;;;;23.52;8.95;;;;;;;-0.33;98.20;94157.53;4969839;28;20108;-66
2022/12/01 06:03:30;;;;;;;23.60;8.40;;;;;;;-0.36;97.04;94161.72;4970680;28;20038;-66
2022/12/01 06:05:56;;;;;;;21.83;8.57;;;;;;;-0.43;96.89;94164.19;4987858;28;20042;-67
2022/12/01 06:08:23;;;;;;;21.75;8.20;;;;;;;-0.60;97.89;94173.31;4984154;28;20053;-65
2022/12/01 06:10:50;;;;;;;21.73;9.38;;;;;;;-0.79;98.09;94168.47;4971582;28;20047;-65
2022/12/01 06:13:16;;;;;;;25.10;9.10;;;;;;;-0.66;98.48;94170.06;4984245;28;20043;-65
2022/12/01 06:15:43;;;;;;;17.02;6.50;;;;;;;-0.53;97.80;94170.03;4969512;28;20112;-64
2022/12/01 06:18:10;;;;;;;21.77;8.40;;;;;;;-0.31;96.86;94160.69;4970339;28;20042;-64
2022/12/01 06:20:36;;;;;;;18.80;7.85;;;;;;;-0.42;95.88;94169.25;4970250;28;20077;-65
2022/12/01 06:23:03;;;;;;;24.45;8.20;;;;;;;-0.41;96.81;94167.34;4973320;28;20050;-65
2022/12/01 06:25:30;;;;;;;20.77;7.78;;;;;;;-0.49;96.75;94173.63;4989394;28;20077;-65
2022/12/01 06:27:57;;;;;;;18.10;6.78;;;;;;;-0.48;97.29;94165.22;4987923;28;20056;-64
2022/12/01 06:30:24;;;;;;;19.27;7.53;;;;;;;-0.38;97.33;94165.84;4973549;28;20050;-65
2022/12/01 06:32:51;;;;;;;21.13;8.25;;;;;;;-0.26;96.10;94169.34;4973486;28;20055;-64
2022/12/01 06:35:18;;;;;;;20.65;7.55;;;;;;;-0.34;96.02;94172.94;4973646;28;20042;-65
2022/12/01 06:37:45;;;;;;;19.77;7.85;;;;;;;-0.07;95.46;94170.63;4973507;28;20062;-64
2022/12/01 06:40:12;;;;;;;19.35;7.30;;;;;;;0.02;94.23;94173.19;4973851;28;20469;-64
2022/12/01 06:42:38;;;;;;;23.33;8.43;;;;;;;0.03;95.03;94172.06;4973876;28;20043;-65
2022/12/01 06:45:05;;;;;;;22.58;7.90;;;;;;;0.11;94.96;94177.31;4984329;28;20385;-65
2022/12/01 06:47:32;;;;;;;21.23;9.10;;;;;;;0.05;94.71;94172.50;4985798;28;20059;-63
2022/12/01 06:49:59;;;;;;;23.13;8.63;;;;;;;0.13;95.34;94177.00;4973035;28;20154;-64
2022/12/01 06:52:26;;;;;;;24.23;9.10;;;;;;;0.12;95.69;94178.91;4973286;28;20053;-64
2022/12/01 06:54:52;;;;;;;28.35;9.75;;;;;;;0.07;95.79;94181.06;4955856;28;20066;-64
2022/12/01 06:57:19;;;;;;;23.67;9.02;;;;;;;0.05;96.36;94186.00;4986768;28;20050;-64
2022/12/01 06:59:46;;;;;;;26.20;8.48;;;;;;;0.07;95.93;94184.53;4958161;28;20042;-64
2022/12/01 07:02:15;;;;;;;21.38;8.38;;;;;;;0.21;95.82;94186.84;4973220;28;20110;-64
2022/12/01 07:04:42;;;;;;;26.80;9.55;;;;;;;0.20;95.70;94179.88;4972774;28;20113;-63
2022/12/01 07:07:10;;;;;;;20.65;8.40;;;;;;;0.09;95.39;94181.50;4970301;28;20555;-64
2022/12/01 07:09:38;;;;;;;20.38;7.72;;;;;;;0.24;94.88;94182.66;4991122;28;20042;-65
2022/12/01 07:12:05;;;;;;;19.90;7.53;;;;;;;0.12;95.23;94188.91;4992519;28;20034;-64
2022/12/01 07:14:32;;;;;;;17.98;7.32;;;;;;;0.19;95.26;94187.19;4978831;28;20046;-65
2022/12/01 07:16:59;;;;;;;20.00;7.45;;;;;;;0.12;95.03;94187.00;4983965;28;20053;-64
2022/12/01 07:19:26;;;;;;;15.63;6.50;;;;;;;0.21;93.33;94194.94;4978315;28;20057;-65
2022/12/01 07:21:52;;;;;;;20.27;6.90;;;;;;;0.36;92.13;94198.81;4972953;28;20047;-65
2022/12/01 07:24:19;;;;;;;16.75;6.68;;;;;;;0.47;91.34;94201.84;4978137;28;20117;-64
2022/12/01 07:26:47;;;;;;;17.02;7.15;;;;;;;0.44;90.24;94202.50;4991285;28;20089;-64
2022/12/01 07:29:13;;;;;;;15.82;6.40;;;;;;;0.28;90.72;94205.97;4972937;28;20155;-65
2022/12/01 07:31:40;;;;;;;16.63;7.05;;;;;;;0.26;91.28;94202.78;4971928;28;20046;-64
2022/12/01 07:34:10;;;;;;;20.60;6.55;;;;;;;0.42;90.43;94202.06;4972720;28;20047;-64
2022/12/01 07:36:38;;;;;;;17.33;6.68;;;;;;;0.34;91.20;94196.50;4972380;28;20051;-65
2022/12/01 07:39:06;;;;;;;28.08;7.43;;;;;;;0.41;91.81;94206.69;4983019;28;20038;-64
2022/12/01 07:41:34;;;;;;;19.52;6.70;;;;;;;0.57;89.70;94209.44;4983831;28;20049;-64
2022/12/01 07:44:01;;;;;;;22.60;7.28;;;;;;;0.61;89.83;94212.25;4981039;28;20131;-65
2022/12/01 07:46:28;;;;;;;19.65;7.35;;;;;;;0.54;90.05;94208.22;4971977;28;20482;-64
2022/12/01 07:48:55;;;;;;;19.50;7.32;;;;;;;0.54;90.09;94216.31;4980121;28;20047;-64
2022/12/01 07:51:24;;;;;;;22.83;8.52;;;;;;;0.43;90.98;94212.53;4972237;28;20049;-65
2022/12/01 07:53:53;;;;;;;19.60;7.30;;;;;;;0.71;90.21;94212.53;4988238;28;20042;-64
2022/12/01 07:56:21;;;;;;;22.20;7.40;;;;;;;0.65;89.83;94215.81;4977646;28;20058;-64
2022/12/01 07:58:48;;;;;;;21.02;7.60;;;;;;;0.64;89.79;94208.84;4982187;28;20047;-65
2022/12/01 08:01:20;;;;;;;22.35;7.55;;;;;;;0.45;90.23;94214.91;4972229;28;20077;-64
2022/12/01 08:03:49;;;;;;;21.05;7.63;;;;;;;0.37;90.11;94211.97;4971799;28;20447;-64
2022/12/01 08:06:16;;;;;;;19.88;8.75;;;;;;;0.36;90.68;94210.44;4972468;28;20057;-65
2022/12/01 08:08:43;;;;;;;21.70;8.02;;;;;;;0.42;90.75;94216.34;4971620;28;20478;-63
2022/12/01 08:11:13;;;;;;;19.07;7.13;;;;;;;0.59;90.06;94210.66;4972045;28;20049;-65
2022/12/01 08:13:40;;;;;;;17.98;7.50;;;;;;;0.32;89.45;94212.25;4972175;28;20045;-65
2022/12/01 08:16:09;;;;;;;20.95;8.63;;;;;;;0.35;90.81;94214.25;4982447;28;21748;-65
2022/12/01 08:18:37;;;;;;;22.33;8.32;;;;;;;0.53;90.15;94214.75;4983806;28;20134;-65
2022/12/01 08:21:06;;;;;;;20.60;7.68;;;;;;;0.56;89.30;94214.06;4971468;28;20051;-65
2022/12/01 08:23:33;;;;;;;20.85;8.02;;;;;;;0.78;88.90;94210.00;4971418;28;20404;-65
2022/12/01 08:26:05;;;;;;;22.02;9.30;;;;;;;0.98;88.20;94212.81;4982048;28;20042;-65
2022/12/01 08:28:35;;;;;;;20.55;8.73;;;;;;;0.81;88.07;94222.03;4975988;28;20042;-65
2022/12/01 08:31:07;;;;;;;19.67;8.00;;;;;;;0.99;87.58;94214.41;4971051;28;20060;-64
2022/12/01 08:33:34;;;;;;;21.70;9.05;;;;;;;0.83;87.42;94213.59;4971937;28;20558;-63
2022/12/01 08:36:02;;;;;;;31.08;10.82;;;;;;;0.73;88.31;94221.06;4969175;28;20120;-65
2022/12/01 08:38:29;;;;;;;28.40;10.07;;;;;;;0.70;87.81;94210.94;4967646;28;20058;-65
2022/12/01 08:41:04;;;;;;;18.00;7.97;;;;;;;0.70;87.72;94213.63;4977979;28;20111;-64
2022/12/01 08:43:30;;;;;;;20.98;8.02;;;;;;;0.73;87.90;94221.06;4983307;28;20050;-65
2022/12/01 08:46:17;;;;;;;21.95;8.50;;;;;;;0.84;87.25;94220.56;4975738;28;20600;-65
2022/12/01 08:48:44;;;;;;;19.05;8.13;;;;;;;0.86;87.30;94224.47;4981781;28;20049;-65
2022/12/01 08:51:14;;;;;;;20.40;8.75;;;;;;;0.86;87.59;94218.28;4971579;28;20142;-65
2022/12/01 08:53:43;;;;;;;22.00;9.05;;;;;;;0.65;87.13;94223.94;4970776;28;20054;-64
2022/12/01 08:56:14;;;;;;;21.95;8.80;;;;;;;0.89;87.48;94223.78;4966723;28;20047;-65
2022/12/01 08:58:41;;;;;;;28.02;10.90;;;;;;;0.81;87.42;94221.25;4973844;28;20447;-65
2022/12/01 09:01:11;;;;;;;29.27;10.30;;;;;;;0.79;87.09;94225.09;4971213;28;20049;-65
2022/12/01 09:03:39;;;;;;;20.33;8.35;;;;;;;0.82;86.95;94223.59;4971086;28;20057;-65
2022/12/01 09:06:10;;;;;;;21.23;8.93;;;;;;;0.76;87.17;94228.47;4970268;28;20951;-65
2022/12/01 09:08:37;;;;;;;21.02;8.20;;;;;;;0.76;87.53;94227.69;4954034;28;20049;-65
2022/12/01 09:11:07;;;;;;;19.55;8.45;;;;;;;0.77;86.75;94229.28;4970934;28;20108;-65
2022/12/01 09:13:35;;;;;;;19.42;7.97;;;;;;;0.88;87.00;94237.66;4986220;28;20054;-65
2022/12/01 09:16:04;;;;;;;23.20;8.20;;;;;;;0.97;86.69;94235.59;4971227;28;20043;-65
2022/12/01 09:18:32;;;;;;;23.30;9.52;;;;;;;0.81;87.37;94232.84;4971047;28;20074;-65
2022/12/01 09:20:59;;;;;;;19.58;8.02;;;;;;;1.17;86.05;94231.06;4970978;28;20046;-65
2022/12/01 09:23:26;;;;;;;20.15;7.93;;;;;;;1.14;85.84;94235.22;4970772;28;20377;-65
2022/12/01 09:25:53;;;;;;;18.43;8.00;;;;;;;1.02;85.79;94229.91;4970685;28;20435;-65
2022/12/01 09:28:19;;;;;;;17.35;7.50;;;;;;;0.82;86.43;94231.69;4970879;28;20046;-64
2022/12/01 09:30:46;;;;;;;15.70;7.28;;;;;;;0.71;86.85;94238.75;4970353;28;20109;-64
2022/12/01 09:33:13;;;;;;;17.63;7.28;;;;;;;0.84;86.89;94237.53;4971065;28;20050;-64
2022/12/01 09:35:40;;;;;;;20.42;8.27;;;;;;;0.96;86.79;94234.00;4970714;28;20085;-65
2022/12/01 09:38:06;;;;;;;18.43;7.90;;;;;;;0.93;86.81;94245.50;4972126;28;20764;-65
2022/12/01 09:40:37;;;;;;;17.67;6.78;;;;;;;1.12;86.16;94240.19;4975378;28;20050;-65
2022/12/01 09:43:11;;;;;;;16.52;6.90;;;;;;;0.98;86.08;94235.22;4972587;28;20045;-64
2022/12/01 09:45:44;;;;;;;20.20;7.47;;;;;;;1.07;86.02;94231.59;4990231;28;20050;-64
2022/12/01 09:48:24;;;;;;;24.45;6.68;;;;;;;0.95;86.12;94235.91;4989384;28;21674;-64
2022/12/01 09:50:51;;;;;;;16.40;6.23;;;;;;;1.02;85.47;94234.53;4972393;28;20051;-64
2022/12/01 09:53:22;;;;;;;21.45;6.78;;;;;;;1.02;85.88;94234.53;4970946;28;20039;-64
2022/12/01 09:55:49;;;;;;;15.68;6.45;;;;;;;1.00;85.32;94229.47;4968583;28;20034;-64
2022/12/01 09:58:24;;;;;;;16.08;7.47;;;;;;;1.15;85.34;94223.31;4970925;28;20047;-64
2022/12/01 10:00:53;;;;;;;16.38;6.80;;;;;;;0.90;85.72;94219.16;4970137;28;20058;-64
2022/12/01 10:03:49;;;;;;;22.98;9.68;;;;;;;1.15;86.17;94211.72;4972493;28;20435;-64
2022/12/01 10:06:32;;;;;;;27.40;11.90;;;;;;;1.51;83.91;94207.16;4987624;28;20275;-64
2022/12/01 10:09:38;;;;;;;40.00;13.10;;;;;;;1.58;83.21;94204.63;4974255;28;20112;-64
2022/12/01 10:12:16;;;;;;;20.08;7.50;;;;;;;1.70;83.09;94195.63;4945814;28;20411;-64
2022/12/01 10:14:45;;;;;;;18.92;7.95;;;;;;;1.20;83.77;94201.41;4984224;28;20049;-64
2022/12/01 10:17:38;;;;;;;24.13;8.90;;;;;;;1.45;83.28;94200.44;4974270;28;20049;-65
2022/12/01 10:20:23;;;;;;;24.77;10.65;;;;;;;1.14;84.58;94193.91;4978161;28;20078;-65
2022/12/01 10:23:32;;;;;;;18.30;7.47;;;;;;;1.24;83.93;94203.44;4973448;28;20132;-65
2022/12/01 10:26:08;;;;;;;18.27;5.72;;;;;;;1.22;83.67;94194.88;4953914;28;20050;-65
2022/12/01 10:28:35;;;;;;;14.98;6.40;;;;;;;1.03;84.95;94192.84;4974486;28;20495;-64
2022/12/01 10:31:33;;;;;;;20.87;7.90;;;;;;;1.36;83.79;94197.91;4973563;28;20043;-64
2022/12/01 10:34:05;;;;;;;25.92;6.60;;;;;;;1.43;83.42;94192.69;4973482;28;20455;-64
2022/12/01 10:36:33;;;;;;;14.02;5.63;;;;;;;1.13;83.95;94190.44;4969388;28;20035;-65
2022/12/01 10:39:03;;;;;;;16.70;5.93;;;;;;;1.17;84.25;94196.72;4974188;28;20093;-64
2022/12/01 10:41:35;;;;;;;19.67;7.68;;;;;;;1.68;83.14;94197.91;4989283;28;20484;-65
2022/12/01 10:44:04;;;;;;;16.90;6.57;;;;;;;1.60;83.14;94186.91;4981521;28;20049;-64
2022/12/01 10:46:42;;;;;;;19.67;6.43;;;;;;;1.52;82.90;94190.56;4988433;28;20042;-64
2022/12/01 10:49:14;;;;;;;14.95;6.25;;;;;;;1.55;83.09;94184.47;4980476;28;20043;-64
2022/12/01 10:51:56;;;;;;;13.32;5.72;;;;;;;1.93;81.47;94180.28;4972951;28;20077;-63
2022/12/01 10:54:31;;;;;;;13.82;6.00;;;;;;;2.06;81.50;94180.16;4979449;28;20050;-65
2022/12/01 10:56:59;;;;;;;14.17;6.00;;;;;;;1.92;81.25;94176.00;4989148;28;20047;-65
2022/12/01 11:00:11;;;;;;;14.88;5.70;;;;;;;1.74;81.55;94169.44;4978514;28;20047;-64
2022/12/01 11:02:58;;;;;;;14.02;6.00;;;;;;;1.40;82.59;94177.94;4980132;28;20069;-64
2022/12/01 11:05:37;;;;;;;17.02;6.57;;;;;;;1.47;83.70;94179.22;4973360;28;20051;-64
2022/12/01 11:08:04;;;;;;;17.67;7.93;;;;;;;1.69;81.59;94172.41;4972858;28;20410;-64
2022/12/01 11:10:32;;;;;;;16.02;6.80;;;;;;;1.52;82.10;94168.94;4972970;28;20403;-64
2022/12/01 11:13:22;;;;;;;20.17;7.90;;;;;;;1.93;81.36;94172.19;4988746;28;20053;-64
2022/12/01 11:15:52;;;;;;;17.88;8.23;;;;;;;1.84;81.55;94177.00;4971167;28;20441;-66
2022/12/01 11:18:23;;;;;;;15.80;6.88;;;;;;;1.69;82.01;94167.78;4973022;28;20384;-68
2022/12/01 11:21:26;;;;;;;19.05;7.78;;;;;;;1.66;81.35;94173.13;4972379;28;20945;-65
2022/12/01 11:23:55;;;;;;;14.70;7.10;;;;;;;2.05;80.75;94173.19;4972504;28;20046;-65
2022/12/01 11:26:31;;;;;;;14.20;6.45;;;;;;;1.88;81.19;94177.84;4986776;28;20039;-64
2022/12/01 11:29:01;;;;;;;14.70;5.97;;;;;;;1.69;81.33;94178.63;4973332;28;20034;-64
2022/12/01 11:31:54;;;;;;;13.55;6.18;;;;;;;1.70;82.24;94168.56;4973084;28;20035;-64
2022/12/01 11:34:33;;;;;;;12.45;5.95;;;;;;;1.72;81.43;94163.59;4984253;28;20435;-65
2022/12/01 11:37:03;;;;;;;15.20;6.53;;;;;;;2.08;81.20;94159.72;4972289;28;20050;-65
2022/12/01 11:39:38;;;;;;;15.20;6.60;;;;;;;1.82;81.93;94154.13;4955032;28;20407;-65
2022/12/01 11:42:11;;;;;;;16.55;6.35;;;;;;;2.34;80.40;94153.66;4976422;28;20396;-64
2022/12/01 11:44:39;;;;;;;13.32;6.40;;;;;;;2.23;80.70;94149.94;4981616;28;20053;-65
2022/12/01 11:47:23;;;;;;;19.70;6.63;;;;;;;2.17;80.62;94151.38;4978055;28;20190;-64
2022/12/01 11:49:58;;;;;;;14.90;6.07;;;;;;;1.96;81.43;94154.44;4981727;28;20400;-64
2022/12/01 11:52:29;;;;;;;13.45;6.53;;;;;;;2.26;80.46;94149.25;4992185;28;20038;-65